Terminal Aerodrome Forecast
Issued by NWS

Home | Current Version | Previous Version | Text Only | Print | Product List | Glossary On
Versions: 1 2 3 4 5 6 7 8 9 10 11 12 13 14 15 16 17 18 19 20 21
000
FTUS43 KFGF 192320
TAFBJI
TAF
KBJI 192320Z 2000/2024 18008KT P6SM FEW250
     FM200600 20008KT P6SM VCTS BKN250CB
     FM200900 26006KT P6SM SCT200=

USA.gov is the U.S. government's official web portal to all federal, state and local government web resources and services.